Baracoa, Cuba
Current Conditions -  °F | °C
As of 3:56 AM on Saturday 20 Dec 2014 (Local Time) from MUGM Reporting Station
Few Clouds Few Clouds  
Wind Chill: 70°   Ceiling: Unl
Heat Index: 70°   Visibility: 6mi
Dew Point: 66°   Wind: 8mph
Humidity: 87%   Direction: 330°NNW
Pressure: 29.98"   Gusts: NA
Location:  20.35°N, 74.5°W
Report Text: MUGM 200756Z 33007KT 9999 FEW035 21/19 A2998 RMK SLP151 T02110189
Loading
Personal Weather Stations






























Interactive Weather Map New forecast layout! Learn more

10-Day Weather Forecast

Advertisements
Track Severe Weather on mobile